Time;durP1;ratioP1;P1;durP2;ratioP2;P2;SDS_P1;SDS_P2;PMS_P1;PMS_P2;Temp;Humidity;BMP_temperature;BMP_pressure;BME280_temperature;BME280_humidity;BME280_pressure;Samples;Min_cycle;Max_cycle;Signal;HPM_P1;HPM_P2
2021/11/24 00:02:06;;;;;;;19.90;13.63;;;;;;;;;;5088455;28;20048;-38
2021/11/24 00:04:32;;;;;;;13.77;11.73;;;;;;;;;;5091691;28;20411;-39
2021/11/24 00:06:57;;;;;;;13.07;10.32;;;;;;;;;;5092149;28;20135;-38
2021/11/24 00:09:22;;;;;;;20.10;12.98;;;;;;;;;;5091574;28;20816;-38
2021/11/24 00:11:48;;;;;;;18.98;10.50;;;;;;;;;;5091026;28;20104;-40
2021/11/24 00:14:13;;;;;;;14.25;11.70;;;;;;;;;;5091940;28;20063;-39
2021/11/24 00:16:38;;;;;;;12.32;10.95;;;;;;;;;;5090408;28;20125;-40
2021/11/24 00:19:04;;;;;;;12.93;11.60;;;;;;;;;;5091683;28;20055;-39
2021/11/24 00:21:29;;;;;;;18.90;14.40;;;;;;;;;;5091384;28;20047;-41
2021/11/24 00:23:54;;;;;;;17.65;15.55;;;;;;;;;;5092064;28;20043;-40
2021/11/24 00:26:20;;;;;;;30.00;16.70;;;;;;;;;;5091825;28;20050;-40
2021/11/24 00:28:45;;;;;;;17.48;13.35;;;;;;;;;;5092129;28;20097;-40
2021/11/24 00:31:10;;;;;;;24.23;13.95;;;;;;;;;;5088142;28;20043;-40
2021/11/24 00:33:36;;;;;;;18.55;14.95;;;;;;;;;;5091470;28;20109;-42
2021/11/24 00:36:01;;;;;;;22.55;17.05;;;;;;;;;;5092072;28;20054;-41
2021/11/24 00:38:27;;;;;;;18.52;16.33;;;;;;;;;;5090443;28;20096;-39
2021/11/24 00:40:53;;;;;;;20.33;17.75;;;;;;;;;;5091503;28;20092;-43
2021/11/24 00:43:18;;;;;;;18.38;16.48;;;;;;;;;;5091284;28;20059;-37
2021/11/24 00:45:43;;;;;;;18.38;12.68;;;;;;;;;;5091586;28;20043;-41
2021/11/24 00:48:09;;;;;;;14.02;12.40;;;;;;;;;;5090473;28;20819;-38
2021/11/24 00:50:34;;;;;;;22.05;15.90;;;;;;;;;;5088677;28;20045;-37
2021/11/24 00:52:59;;;;;;;22.25;18.17;;;;;;;;;;5091910;28;20052;-40
2021/11/24 00:55:25;;;;;;;20.70;18.50;;;;;;;;;;5087301;28;20560;-38
2021/11/24 00:57:50;;;;;;;20.38;18.42;;;;;;;;;;5086970;28;20067;-37
2021/11/24 01:00:17;;;;;;;22.58;19.45;;;;;;;;;;5090379;28;20040;-38
2021/11/24 01:02:42;;;;;;;18.42;15.68;;;;;;;;;;5090069;28;20056;-38
2021/11/24 01:05:08;;;;;;;21.27;14.00;;;;;;;;;;5090927;28;20101;-41
2021/11/24 01:07:34;;;;;;;13.82;11.13;;;;;;;;;;5087166;28;20056;-43
2021/11/24 01:09:59;;;;;;;14.23;12.80;;;;;;;;;;5087925;28;20055;-40
2021/11/24 01:12:24;;;;;;;19.48;11.48;;;;;;;;;;5081137;28;20032;-41
2021/11/24 01:14:50;;;;;;;13.80;10.68;;;;;;;;;;5087856;28;20036;-39
2021/11/24 01:17:15;;;;;;;15.80;9.85;;;;;;;;;;5087259;28;20130;-41
2021/11/24 01:19:41;;;;;;;12.73;9.20;;;;;;;;;;5086003;28;20040;-38
2021/11/24 01:22:06;;;;;;;17.80;11.15;;;;;;;;;;5088398;28;20067;-41
2021/11/24 01:24:31;;;;;;;15.00;12.48;;;;;;;;;;5087621;28;20040;-42
2021/11/24 01:26:57;;;;;;;25.33;12.68;;;;;;;;;;5084817;28;20670;-41
2021/11/24 01:29:22;;;;;;;18.40;13.57;;;;;;;;;;5081647;28;20048;-38
2021/11/24 01:31:47;;;;;;;13.77;11.45;;;;;;;;;;5087869;28;20069;-40
2021/11/24 01:34:13;;;;;;;13.13;11.52;;;;;;;;;;5087327;28;20040;-39
2021/11/24 01:36:38;;;;;;;13.32;11.85;;;;;;;;;;5087171;28;20036;-37
2021/11/24 01:39:03;;;;;;;13.95;12.15;;;;;;;;;;5084482;28;20090;-40
2021/11/24 01:41:29;;;;;;;20.08;13.98;;;;;;;;;;5087604;28;20044;-40
2021/11/24 01:43:54;;;;;;;15.18;11.25;;;;;;;;;;5081305;28;20086;-39
2021/11/24 01:46:23;;;;;;;15.85;12.68;;;;;;;;;;5086915;28;20058;-43
2021/11/24 01:48:49;;;;;;;8.15;6.15;;;;;;;;;;5087663;28;20044;-41
2021/11/24 01:51:14;;;;;;;10.52;2.20;;;;;;;;;;5084601;28;20790;-43
2021/11/24 01:53:39;;;;;;;5.05;1.92;;;;;;;;;;5085459;28;20670;-38
2021/11/24 01:56:05;;;;;;;6.78;1.20;;;;;;;;;;5086930;28;20048;-36
2021/11/24 01:58:31;;;;;;;3.25;1.88;;;;;;;;;;5086214;28;20056;-40
2021/11/24 02:00:57;;;;;;;1.75;1.17;;;;;;;;;;5085845;28;20043;-38
2021/11/24 02:03:22;;;;;;;2.50;1.40;;;;;;;;;;5086574;28;20048;-37
2021/11/24 02:05:47;;;;;;;4.50;1.85;;;;;;;;;;5084519;28;20490;-38
2021/11/24 02:08:13;;;;;;;3.20;0.45;;;;;;;;;;5085567;28;20082;-39
2021/11/24 02:10:38;;;;;;;10.55;1.52;;;;;;;;;;5084581;28;20073;-39
2021/11/24 02:13:03;;;;;;;4.90;1.52;;;;;;;;;;5086167;28;20065;-39
2021/11/24 02:15:29;;;;;;;9.65;0.95;;;;;;;;;;5086257;28;20067;-37
2021/11/24 02:17:59;;;;;;;3.75;0.70;;;;;;;;;;5083079;28;20033;-38
2021/11/24 02:20:34;;;;;;;2.72;0.60;;;;;;;;;;5084234;28;20075;-38
2021/11/24 02:22:59;;;;;;;2.55;0.98;;;;;;;;;;5086365;28;20039;-37
2021/11/24 02:25:24;;;;;;;2.90;1.23;;;;;;;;;;5086426;28;20055;-40
2021/11/24 02:27:50;;;;;;;10.70;1.48;;;;;;;;;;5085831;28;20040;-42
2021/11/24 02:30:15;;;;;;;3.58;1.30;;;;;;;;;;5085321;28;20048;-38
2021/11/24 02:32:40;;;;;;;9.30;1.60;;;;;;;;;;5082841;28;20441;-36
2021/11/24 02:35:09;;;;;;;5.80;1.73;;;;;;;;;;5086941;28;20503;-39
2021/11/24 02:37:34;;;;;;;1.55;0.90;;;;;;;;;;5086589;28;20040;-37
2021/11/24 02:39:59;;;;;;;1.63;0.77;;;;;;;;;;5085962;28;20044;-39
2021/11/24 02:42:25;;;;;;;4.15;1.17;;;;;;;;;;5086556;28;20521;-40
2021/11/24 02:44:51;;;;;;;4.30;1.63;;;;;;;;;;5086568;28;20462;-38
2021/11/24 02:47:19;;;;;;;3.08;0.95;;;;;;;;;;5085967;28;20052;-41
2021/11/24 02:49:49;;;;;;;1.40;0.45;;;;;;;;;;5078750;28;20059;-39
2021/11/24 02:52:15;;;;;;;4.63;0.70;;;;;;;;;;5083389;28;20134;-40
2021/11/24 02:54:40;;;;;;;6.80;0.65;;;;;;;;;;5087260;28;20135;-40
2021/11/24 02:57:07;;;;;;;0.68;0.45;;;;;;;;;;5086644;28;20121;-40
2021/11/24 02:59:32;;;;;;;1.42;0.45;;;;;;;;;;5086368;28;20042;-40
2021/11/24 03:01:58;;;;;;;4.25;0.77;;;;;;;;;;5084872;28;20048;-39
2021/11/24 03:04:27;;;;;;;1.02;0.75;;;;;;;;;;5085977;28;20113;-42
2021/11/24 03:06:52;;;;;;;1.42;0.88;;;;;;;;;;5086127;28;20490;-40
2021/11/24 03:09:18;;;;;;;10.50;1.35;;;;;;;;;;5085379;28;20116;-37
2021/11/24 03:11:43;;;;;;;13.60;0.93;;;;;;;;;;5082173;28;20048;-41
2021/11/24 03:14:08;;;;;;;0.73;0.50;;;;;;;;;;5084784;28;20112;-38
2021/11/24 03:16:34;;;;;;;2.95;0.63;;;;;;;;;;5080203;28;20044;-41
2021/11/24 03:18:59;;;;;;;3.03;1.08;;;;;;;;;;5086220;28;20048;-41
2021/11/24 03:21:24;;;;;;;3.10;0.93;;;;;;;;;;5085210;28;20380;-40
2021/11/24 03:23:49;;;;;;;2.90;1.02;;;;;;;;;;5085606;28;20071;-41
2021/11/24 03:26:15;;;;;;;2.38;1.15;;;;;;;;;;5086200;28;20131;-41
2021/11/24 03:28:40;;;;;;;4.70;0.22;;;;;;;;;;5085055;28;20457;-37
2021/11/24 03:31:06;;;;;;;0.77;0.40;;;;;;;;;;5082970;28;20056;-43
2021/11/24 03:33:31;;;;;;;5.63;1.00;;;;;;;;;;5084896;28;20050;-37
2021/11/24 03:35:57;;;;;;;5.40;1.42;;;;;;;;;;5083613;28;20600;-41
2021/11/24 03:38:22;;;;;;;3.00;1.08;;;;;;;;;;5082975;28;20036;-39
2021/11/24 03:40:47;;;;;;;5.05;0.95;;;;;;;;;;5083412;28;20044;-39
2021/11/24 03:43:13;;;;;;;3.08;0.75;;;;;;;;;;5083444;28;20143;-42
2021/11/24 03:45:38;;;;;;;0.93;0.40;;;;;;;;;;5084246;28;20549;-39
2021/11/24 03:48:05;;;;;;;2.38;1.10;;;;;;;;;;5084311;28;20051;-41
2021/11/24 03:50:30;;;;;;;1.27;0.60;;;;;;;;;;5083375;28;20082;-41
2021/11/24 03:52:55;;;;;;;3.03;0.68;;;;;;;;;;5085269;28;20079;-40
2021/11/24 03:55:21;;;;;;;0.68;0.35;;;;;;;;;;5085529;28;20040;-40
2021/11/24 03:57:47;;;;;;;1.70;0.60;;;;;;;;;;5083848;28;20044;-39
2021/11/24 04:00:20;;;;;;;7.13;1.20;;;;;;;;;;5084242;28;20062;-42
2021/11/24 04:02:45;;;;;;;0.15;0.10;;;;;;;;;;5085286;28;20082;-41
2021/11/24 04:05:11;;;;;;;1.42;0.95;;;;;;;;;;5085570;28;20413;-42
2021/11/24 04:07:36;;;;;;;3.10;1.23;;;;;;;;;;5085582;28;20048;-38
2021/11/24 04:10:03;;;;;;;4.85;1.70;;;;;;;;;;5084640;28;20395;-37
2021/11/24 04:12:28;;;;;;;2.28;0.93;;;;;;;;;;5082334;28;21066;-39
2021/11/24 04:14:53;;;;;;;4.40;1.65;;;;;;;;;;5086079;28;20079;-37
2021/11/24 04:17:19;;;;;;;0.70;0.43;;;;;;;;;;5091726;28;20414;-38
2021/11/24 04:19:44;;;;;;;9.18;0.75;;;;;;;;;;5085571;28;20050;-40
2021/11/24 04:22:10;;;;;;;4.57;1.17;;;;;;;;;;5085751;28;20085;-37
2021/11/24 04:24:36;;;;;;;3.25;1.25;;;;;;;;;;5085276;28;20897;-37
2021/11/24 04:27:02;;;;;;;4.20;1.52;;;;;;;;;;5085368;28;20048;-37
2021/11/24 04:29:27;;;;;;;3.60;0.98;;;;;;;;;;5085006;28;20048;-38
2021/11/24 04:31:52;;;;;;;3.40;0.93;;;;;;;;;;5081744;28;20078;-43
2021/11/24 04:34:18;;;;;;;1.92;0.57;;;;;;;;;;5085058;28;20515;-42
2021/11/24 04:36:43;;;;;;;2.70;0.85;;;;;;;;;;5085358;28;20542;-42
2021/11/24 04:39:09;;;;;;;0.52;0.30;;;;;;;;;;5084916;28;20032;-39
2021/11/24 04:41:34;;;;;;;2.90;0.55;;;;;;;;;;5086129;28;20173;-38
2021/11/24 04:44:00;;;;;;;0.93;0.50;;;;;;;;;;5090036;28;20069;-39
2021/11/24 04:46:25;;;;;;;0.30;0.22;;;;;;;;;;5087023;28;20569;-39
2021/11/24 04:48:50;;;;;;;2.33;0.50;;;;;;;;;;5085057;28;20067;-39
2021/11/24 04:51:16;;;;;;;4.55;0.68;;;;;;;;;;5083890;28;20436;-41
2021/11/24 04:53:41;;;;;;;2.17;0.88;;;;;;;;;;5085542;28;20059;-39
2021/11/24 04:56:06;;;;;;;4.22;0.70;;;;;;;;;;5087729;28;20051;-42
2021/11/24 04:58:35;;;;;;;6.65;1.85;;;;;;;;;;5088370;28;20060;-40
2021/11/24 05:01:00;;;;;;;6.75;1.83;;;;;;;;;;5081120;28;20040;-40
2021/11/24 05:03:25;;;;;;;1.33;0.73;;;;;;;;;;5088900;28;20843;-38
2021/11/24 05:05:51;;;;;;;5.78;1.38;;;;;;;;;;5089021;28;20490;-40
2021/11/24 05:08:16;;;;;;;1.65;0.60;;;;;;;;;;5088794;28;20506;-39
2021/11/24 05:10:41;;;;;;;1.80;0.70;;;;;;;;;;5088643;28;20044;-42
2021/11/24 05:13:07;;;;;;;3.85;0.40;;;;;;;;;;5087557;28;20124;-41
2021/11/24 05:15:35;;;;;;;1.13;0.40;;;;;;;;;;5088515;28;20111;-39
2021/11/24 05:18:03;;;;;;;0.52;0.17;;;;;;;;;;5088229;28;20474;-44
2021/11/24 05:20:30;;;;;;;5.00;0.40;;;;;;;;;;5088540;28;20099;-39
2021/11/24 05:22:59;;;;;;;0.00;0.00;;;;;;;;;;5087913;28;20158;-38
2021/11/24 05:25:25;;;;;;;1.90;0.70;;;;;;;;;;5088676;28;20109;-41
2021/11/24 05:27:50;;;;;;;9.55;0.60;;;;;;;;;;5088625;28;20052;-40
2021/11/24 05:30:16;;;;;;;1.23;0.40;;;;;;;;;;5086347;28;20410;-39
2021/11/24 05:32:41;;;;;;;0.75;0.17;;;;;;;;;;5087897;28;20054;-36
2021/11/24 05:35:07;;;;;;;1.00;0.30;;;;;;;;;;5086384;28;20044;-38
2021/11/24 05:37:32;;;;;;;0.13;0.10;;;;;;;;;;5083918;28;20037;-37
2021/11/24 05:39:58;;;;;;;0.55;0.30;;;;;;;;;;5086658;28;20113;-40
2021/11/24 05:42:25;;;;;;;1.58;0.82;;;;;;;;;;5086582;28;20048;-39
2021/11/24 05:45:00;;;;;;;1.45;0.45;;;;;;;;;;5087355;28;20048;-37
2021/11/24 05:50:09;;;;;;;0.68;0.35;;;;;;;;;;5086474;28;20083;-39
2021/11/24 05:52:35;;;;;;;0.40;0.20;;;;;;;;;;5080113;28;20503;-38
2021/11/24 05:55:00;;;;;;;0.57;0.28;;;;;;;;;;5084766;28;20104;-38
2021/11/24 05:57:25;;;;;;;0.63;0.32;;;;;;;;;;5087253;28;20162;-39
2021/11/24 05:59:51;;;;;;;0.40;0.20;;;;;;;;;;5088103;28;20078;-40
2021/11/24 06:02:16;;;;;;;2.70;1.05;;;;;;;;;;5083513;28;20051;-37
2021/11/24 06:04:41;;;;;;;1.60;0.45;;;;;;;;;;5087548;28;20052;-39
2021/11/24 06:07:06;;;;;;;2.85;1.73;;;;;;;;;;5084317;28;20032;-40
2021/11/24 06:09:32;;;;;;;1.30;0.70;;;;;;;;;;5086750;28;20127;-37
2021/11/24 06:11:57;;;;;;;1.13;0.63;;;;;;;;;;5082449;28;20722;-37
2021/11/24 06:14:22;;;;;;;0.45;0.25;;;;;;;;;;5085333;28;20585;-40
2021/11/24 06:16:48;;;;;;;0.15;0.15;;;;;;;;;;5087736;28;20112;-40
2021/11/24 06:19:13;;;;;;;0.32;0.30;;;;;;;;;;5087407;28;20039;-38
2021/11/24 06:21:38;;;;;;;1.42;0.60;;;;;;;;;;5087355;28;20051;-37
2021/11/24 06:24:04;;;;;;;0.60;0.15;;;;;;;;;;5087389;28;20051;-38
2021/11/24 06:26:29;;;;;;;0.20;0.13;;;;;;;;;;5086616;28;20066;-39
2021/11/24 06:28:55;;;;;;;0.40;0.22;;;;;;;;;;5086485;28;20139;-38
2021/11/24 06:31:22;;;;;;;1.30;0.57;;;;;;;;;;5082692;28;20140;-37
2021/11/24 06:33:48;;;;;;;0.75;0.28;;;;;;;;;;5086473;28;20525;-39
2021/11/24 06:36:13;;;;;;;3.13;2.38;;;;;;;;;;5085141;28;20498;-43
2021/11/24 06:38:39;;;;;;;0.52;0.28;;;;;;;;;;5086219;28;20108;-38
2021/11/24 06:41:04;;;;;;;0.20;0.20;;;;;;;;;;5086594;28;20040;-38
2021/11/24 06:43:29;;;;;;;4.35;1.20;;;;;;;;;;5085420;28;20227;-39
2021/11/24 06:45:55;;;;;;;1.67;0.77;;;;;;;;;;5082056;28;20072;-42
2021/11/24 06:48:20;;;;;;;2.85;0.95;;;;;;;;;;5085464;28;20595;-44
2021/11/24 06:50:45;;;;;;;10.10;1.63;;;;;;;;;;5085518;28;20044;-40
2021/11/24 06:53:11;;;;;;;11.63;4.18;;;;;;;;;;5083989;28;20101;-40
2021/11/24 06:55:36;;;;;;;6.68;2.40;;;;;;;;;;5086321;28;20047;-41
2021/11/24 06:58:02;;;;;;;1.55;0.70;;;;;;;;;;5086783;28;20044;-43
2021/11/24 07:00:28;;;;;;;0.35;0.20;;;;;;;;;;5084472;28;20050;-39
2021/11/24 07:02:53;;;;;;;1.10;0.40;;;;;;;;;;5086271;28;20047;-41
2021/11/24 07:05:19;;;;;;;2.60;1.60;;;;;;;;;;5084991;28;20040;-40
2021/11/24 07:07:44;;;;;;;4.07;1.38;;;;;;;;;;5085998;28;20079;-42
2021/11/24 07:10:10;;;;;;;5.65;3.10;;;;;;;;;;5082775;28;20044;-39
2021/11/24 07:12:35;;;;;;;1.45;0.77;;;;;;;;;;5082349;28;20503;-38
2021/11/24 07:15:01;;;;;;;1.77;1.25;;;;;;;;;;5086242;28;20205;-39
2021/11/24 07:17:26;;;;;;;4.50;1.63;;;;;;;;;;5084274;28;20075;-38
2021/11/24 07:19:52;;;;;;;4.93;1.27;;;;;;;;;;5085941;28;20044;-40
2021/11/24 07:22:17;;;;;;;2.65;1.92;;;;;;;;;;5086425;28;20407;-43
2021/11/24 07:24:43;;;;;;;6.55;2.03;;;;;;;;;;5083809;28;20040;-40
2021/11/24 07:27:08;;;;;;;3.05;1.42;;;;;;;;;;5081666;28;20134;-40
2021/11/24 07:29:33;;;;;;;2.35;1.65;;;;;;;;;;5085605;28;20337;-39
2021/11/24 07:31:59;;;;;;;30.35;27.33;;;;;;;;;;5077882;28;20495;-39
2021/11/24 07:34:24;;;;;;;48.67;43.50;;;;;;;;;;5085475;28;20522;-41
2021/11/24 07:36:49;;;;;;;62.30;54.70;;;;;;;;;;5084332;28;20044;-38
2021/11/24 07:39:15;;;;;;;88.78;62.70;;;;;;;;;;5081808;28;20035;-41
2021/11/24 07:41:40;;;;;;;82.25;65.68;;;;;;;;;;5082717;28;20094;-41
2021/11/24 07:44:06;;;;;;;84.68;68.45;;;;;;;;;;5081683;28;20040;-41
2021/11/24 07:46:31;;;;;;;83.53;62.33;;;;;;;;;;5081756;28;20051;-41
2021/11/24 07:48:58;;;;;;;49.85;38.67;;;;;;;;;;5084950;28;20050;-43
2021/11/24 07:51:23;;;;;;;33.28;24.85;;;;;;;;;;5079645;28;20040;-40
2021/11/24 07:53:49;;;;;;;27.35;20.67;;;;;;;;;;5084053;28;20693;-40
2021/11/24 07:56:14;;;;;;;19.58;15.40;;;;;;;;;;5083975;28;20050;-39
2021/11/24 07:58:41;;;;;;;20.23;14.43;;;;;;;;;;5085324;28;20149;-41
2021/11/24 08:01:07;;;;;;;7.75;6.63;;;;;;;;;;5081065;28;20048;-41
2021/11/24 08:03:32;;;;;;;6.60;3.45;;;;;;;;;;5084084;28;20533;-43
2021/11/24 08:05:58;;;;;;;9.35;2.72;;;;;;;;;;5082176;28;20048;-42
2021/11/24 08:08:23;;;;;;;7.25;4.95;;;;;;;;;;5083628;28;20058;-52
2021/11/24 08:10:48;;;;;;;8.55;5.10;;;;;;;;;;5083592;28;20044;-54
2021/11/24 08:13:13;;;;;;;10.35;6.20;;;;;;;;;;5080395;28;20047;-56
2021/11/24 08:15:39;;;;;;;6.82;4.53;;;;;;;;;;5085470;28;20127;-57
2021/11/24 08:18:04;;;;;;;13.77;6.80;;;;;;;;;;5085984;28;20048;-70
2021/11/24 08:20:29;;;;;;;2.30;1.88;;;;;;;;;;5083247;28;20064;-61
2021/11/24 08:22:55;;;;;;;5.00;0.98;;;;;;;;;;5087107;28;20048;-62
2021/11/24 08:25:20;;;;;;;3.78;1.75;;;;;;;;;;5088961;28;20380;-58
2021/11/24 08:27:45;;;;;;;1.73;1.13;;;;;;;;;;5089313;28;20754;-59
2021/11/24 08:30:11;;;;;;;1.83;0.88;;;;;;;;;;5089426;28;20514;-58
2021/11/24 08:32:36;;;;;;;7.03;1.35;;;;;;;;;;5089494;28;20044;-62
2021/11/24 08:35:04;;;;;;;3.63;1.05;;;;;;;;;;5085506;28;20805;-62
2021/11/24 08:37:30;;;;;;;0.50;0.40;;;;;;;;;;5083874;28;20051;-70
2021/11/24 08:39:55;;;;;;;1.33;0.60;;;;;;;;;;5085671;28;20040;-61
2021/11/24 08:42:21;;;;;;;1.60;0.60;;;;;;;;;;5087836;28;20177;-60
2021/11/24 08:44:46;;;;;;;1.08;0.40;;;;;;;;;;5089757;28;20066;-63
2021/11/24 08:47:11;;;;;;;1.10;0.57;;;;;;;;;;5089679;28;20040;-50
2021/11/24 08:49:37;;;;;;;5.32;0.73;;;;;;;;;;5088896;28;20044;-55
2021/11/24 08:52:02;;;;;;;1.02;0.55;;;;;;;;;;5089242;28;20059;-53
2021/11/24 08:54:28;;;;;;;0.40;0.20;;;;;;;;;;5085297;28;20050;-57
2021/11/24 08:56:53;;;;;;;1.05;0.32;;;;;;;;;;5083679;28;20051;-56
2021/11/24 08:59:19;;;;;;;0.40;0.20;;;;;;;;;;5075977;28;20044;-53
2021/11/24 09:01:44;;;;;;;15.15;11.52;;;;;;;;;;5084675;28;20408;-52
2021/11/24 09:04:10;;;;;;;2.67;1.60;;;;;;;;;;5081976;28;20052;-55
2021/11/24 09:06:36;;;;;;;1.23;0.50;;;;;;;;;;5084812;28;20044;-53
2021/11/24 09:09:02;;;;;;;1.73;1.00;;;;;;;;;;5084968;28;20048;-53
2021/11/24 09:11:28;;;;;;;1.13;0.52;;;;;;;;;;5081803;28;20040;-56
2021/11/24 09:13:53;;;;;;;12.93;0.70;;;;;;;;;;5082859;28;20494;-53
2021/11/24 09:16:19;;;;;;;1.65;0.40;;;;;;;;;;5085937;28;20052;-58
2021/11/24 09:18:44;;;;;;;0.95;0.57;;;;;;;;;;5086371;28;20040;-53
2021/11/24 09:21:10;;;;;;;1.65;0.32;;;;;;;;;;5085102;28;20166;-55
2021/11/24 09:23:38;;;;;;;7.68;4.32;;;;;;;;;;5078033;28;20135;-54
2021/11/24 09:26:14;;;;;;;9.48;3.55;;;;;;;;;;5076690;28;20103;-54
2021/11/24 09:28:43;;;;;;;3.15;1.63;;;;;;;;;;5083098;28;20374;-57
2021/11/24 09:31:08;;;;;;;2.55;1.60;;;;;;;;;;5083780;28;20040;-56
2021/11/24 09:33:38;;;;;;;8.98;4.55;;;;;;;;;;5083029;28;20233;-55
2021/11/24 09:36:04;;;;;;;4.82;2.08;;;;;;;;;;5083374;28;20062;-52
2021/11/24 09:38:30;;;;;;;6.65;1.73;;;;;;;;;;5083873;28;20044;-53
2021/11/24 09:41:01;;;;;;;3.13;1.45;;;;;;;;;;5082256;28;20140;-54
2021/11/24 09:43:27;;;;;;;7.40;3.65;;;;;;;;;;5083856;28;20522;-54
2021/11/24 09:45:53;;;;;;;4.05;2.47;;;;;;;;;;5078540;28;20720;-56
2021/11/24 09:48:19;;;;;;;3.22;1.20;;;;;;;;;;5062270;28;20051;-57
2021/11/24 09:50:47;;;;;;;1.42;0.77;;;;;;;;;;5082363;28;20048;-58
2021/11/24 09:53:13;;;;;;;10.90;2.20;;;;;;;;;;5080574;28;20122;-58
2021/11/24 09:55:40;;;;;;;1.42;0.50;;;;;;;;;;5084835;28;20040;-57
2021/11/24 09:58:06;;;;;;;3.83;1.45;;;;;;;;;;5082134;28;20566;-57
2021/11/24 10:00:32;;;;;;;2.42;1.67;;;;;;;;;;5084416;28;20043;-60
2021/11/24 10:02:58;;;;;;;5.47;3.15;;;;;;;;;;5086190;28;20040;-56
2021/11/24 10:05:24;;;;;;;10.95;5.18;;;;;;;;;;5087340;28;20050;-54
2021/11/24 10:07:49;;;;;;;8.02;3.40;;;;;;;;;;5086850;28;20059;-57
2021/11/24 10:10:15;;;;;;;3.50;2.42;;;;;;;;;;5086062;28;20094;-57
2021/11/24 10:12:40;;;;;;;3.65;2.90;;;;;;;;;;5086918;28;20589;-57
2021/11/24 10:15:09;;;;;;;5.40;3.92;;;;;;;;;;5087024;28;20040;-57
2021/11/24 10:17:35;;;;;;;4.82;2.95;;;;;;;;;;5083928;28;20055;-56
2021/11/24 10:20:06;;;;;;;2.45;1.90;;;;;;;;;;5087132;28;20059;-59
2021/11/24 10:22:32;;;;;;;;;;;;;;;;;;5085411;28;20064;-57
2021/11/24 10:25:08;;;;;;;4.53;2.35;;;;;;;;;;5087534;28;19916;-58
2021/11/24 10:27:44;;;;;;;6.88;5.90;;;;;;;;;;5085602;28;20465;-57
2021/11/24 10:30:11;;;;;;;5.78;3.50;;;;;;;;;;5084795;28;20059;-58
2021/11/24 10:32:36;;;;;;;14.18;1.85;;;;;;;;;;5076054;28;20044;-58
2021/11/24 10:35:02;;;;;;;12.43;1.30;;;;;;;;;;5086806;28;20044;-63
2021/11/24 10:37:28;;;;;;;2.28;1.35;;;;;;;;;;5085626;28;20074;-48
2021/11/24 10:39:57;;;;;;;5.72;4.10;;;;;;;;;;5084292;28;20052;-50
2021/11/24 10:42:29;;;;;;;7.18;4.30;;;;;;;;;;5084545;28;20048;-47
2021/11/24 10:45:08;;;;;;;4.18;3.63;;;;;;;;;;5086038;28;20048;-52
2021/11/24 10:47:34;;;;;;;9.27;5.22;;;;;;;;;;5085941;28;20036;-47
2021/11/24 10:50:02;;;;;;;7.72;3.92;;;;;;;;;;5087012;28;20040;-50
2021/11/24 10:52:30;;;;;;;3.85;2.47;;;;;;;;;;5086453;28;20043;-54
2021/11/24 10:54:58;;;;;;;7.88;2.47;;;;;;;;;;5086564;28;20059;-50
2021/11/24 10:57:24;;;;;;;4.68;2.90;;;;;;;;;;5086667;28;20051;-51
2021/11/24 10:59:49;;;;;;;6.20;1.65;;;;;;;;;;5084298;28;20127;-49
2021/11/24 11:02:31;;;;;;;4.15;2.25;;;;;;;;;;5084702;28;20153;-52
2021/11/24 11:04:59;;;;;;;7.07;3.35;;;;;;;;;;5085655;28;20039;-59
2021/11/24 11:07:25;;;;;;;4.90;1.73;;;;;;;;;;5085632;28;20166;-60
2021/11/24 11:10:23;;;;;;;15.80;3.13;;;;;;;;;;5083389;28;20028;-60
2021/11/24 11:12:52;;;;;;;1.98;1.15;;;;;;;;;;5052344;28;20552;-61
2021/11/24 11:15:25;;;;;;;5.72;1.35;;;;;;;;;;5085675;28;20040;-62
2021/11/24 11:17:53;;;;;;;4.22;1.45;;;;;;;;;;5085492;28;20039;-62
2021/11/24 11:20:19;;;;;;;6.50;1.90;;;;;;;;;;5084741;28;20040;-61
2021/11/24 11:22:51;;;;;;;2.58;1.85;;;;;;;;;;5085763;28;20047;-61
2021/11/24 11:25:16;;;;;;;12.57;3.70;;;;;;;;;;5086235;28;20419;-61
2021/11/24 11:27:44;;;;;;;4.22;2.30;;;;;;;;;;5084258;28;20043;-61
2021/11/24 11:30:10;;;;;;;5.72;2.15;;;;;;;;;;5085754;28;20114;-66
2021/11/24 11:32:35;;;;;;;10.70;1.90;;;;;;;;;;5085084;28;20716;-62
2021/11/24 11:35:01;;;;;;;8.38;7.60;;;;;;;;;;5084977;28;20040;-59
2021/11/24 11:37:26;;;;;;;8.05;2.65;;;;;;;;;;5084361;28;20040;-61
2021/11/24 11:39:51;;;;;;;2.70;1.42;;;;;;;;;;5085013;28;20040;-60
2021/11/24 11:42:17;;;;;;;1.90;1.60;;;;;;;;;;5080384;28;20484;-60
2021/11/24 11:44:43;;;;;;;4.63;2.92;;;;;;;;;;5086380;28;20127;-60
2021/11/24 11:47:08;;;;;;;2.78;1.55;;;;;;;;;;5085448;28;20185;-60
2021/11/24 11:49:36;;;;;;;2.53;1.10;;;;;;;;;;5084289;28;20483;-59
2021/11/24 11:52:11;;;;;;;5.38;2.47;;;;;;;;;;5085503;28;20044;-59
2021/11/24 11:54:36;;;;;;;17.58;9.85;;;;;;;;;;5084659;28;20369;-59
2021/11/24 11:57:04;;;;;;;18.67;13.73;;;;;;;;;;5081122;28;20518;-59
2021/11/24 11:59:35;;;;;;;23.30;18.83;;;;;;;;;;5083650;28;20775;-59
2021/11/24 12:02:03;;;;;;;23.27;14.30;;;;;;;;;;5081163;28;20090;-59
2021/11/24 12:04:30;;;;;;;39.30;27.75;;;;;;;;;;5084737;28;20035;-59
2021/11/24 12:06:56;;;;;;;24.13;16.75;;;;;;;;;;5081971;28;20475;-59
2021/11/24 12:09:24;;;;;;;20.25;14.80;;;;;;;;;;5082905;28;20100;-59
2021/11/24 12:11:59;;;;;;;11.23;7.25;;;;;;;;;;5083732;28;20048;-59
2021/11/24 12:14:43;;;;;;;5.88;3.10;;;;;;;;;;5083542;28;20059;-59
2021/11/24 12:17:39;;;;;;;8.90;3.90;;;;;;;;;;5080566;28;20040;-60
2021/11/24 12:20:14;;;;;;;4.60;2.75;;;;;;;;;;5012664;28;20053;-59
2021/11/24 12:25:20;;;;;;;7.53;4.03;;;;;;;;;;5081012;28;20044;-59
2021/11/24 12:30:39;;;;;;;4.70;3.78;;;;;;;;;;5085177;28;20395;-59
2021/11/24 12:33:11;;;;;;;26.00;20.13;;;;;;;;;;5084148;28;20603;-59
2021/11/24 12:35:57;;;;;;;5.65;4.28;;;;;;;;;;5081370;28;21244;-59
2021/11/24 12:38:25;;;;;;;6.35;4.40;;;;;;;;;;5084204;28;20107;-59
2021/11/24 12:40:51;;;;;;;7.05;6.30;;;;;;;;;;5084905;28;20056;-59
2021/11/24 12:43:18;;;;;;;6.68;3.67;;;;;;;;;;5084962;28;20048;-59
2021/11/24 12:46:00;;;;;;;4.03;2.22;;;;;;;;;;5084088;28;20088;-60
2021/11/24 12:48:33;;;;;;;7.10;5.72;;;;;;;;;;5085302;28;20043;-61
2021/11/24 12:50:59;;;;;;;14.55;3.08;;;;;;;;;;5085335;28;20131;-53
2021/11/24 12:53:25;;;;;;;3.75;1.88;;;;;;;;;;5083875;28;20055;-56
2021/11/24 12:56:02;;;;;;;5.28;1.85;;;;;;;;;;5084410;28;20036;-56
2021/11/24 12:58:28;;;;;;;3.80;1.55;;;;;;;;;;5083557;28;20094;-56
2021/11/24 13:00:53;;;;;;;5.63;2.22;;;;;;;;;;5085410;28;20673;-65
2021/11/24 13:03:28;;;;;;;7.13;2.13;;;;;;;;;;5087534;28;20044;-63
2021/11/24 13:05:56;;;;;;;4.05;2.22;;;;;;;;;;5089225;28;20110;-69
2021/11/24 13:08:22;;;;;;;9.35;4.53;;;;;;;;;;5087561;28;20055;-66
2021/11/24 13:10:59;;;;;;;5.07;3.58;;;;;;;;;;5086315;28;20041;-64
2021/11/24 13:13:24;;;;;;;1.55;0.80;;;;;;;;;;5081746;28;20044;-65
2021/11/24 13:15:50;;;;;;;0.88;0.43;;;;;;;;;;5085050;28;20059;-65
2021/11/24 13:18:21;;;;;;;1.70;1.55;;;;;;;;;;5087052;28;20152;-64
2021/11/24 13:20:47;;;;;;;6.68;4.13;;;;;;;;;;5087233;28;20047;-65
2021/11/24 13:23:13;;;;;;;6.20;2.15;;;;;;;;;;5088698;28;20052;-64
2021/11/24 13:25:40;;;;;;;4.38;2.05;;;;;;;;;;5088619;28;20392;-65
2021/11/24 13:28:08;;;;;;;3.08;2.08;;;;;;;;;;5088599;28;20576;-64
2021/11/24 13:30:36;;;;;;;4.85;1.25;;;;;;;;;;5087631;28;20036;-66
2021/11/24 13:33:08;;;;;;;1.88;1.00;;;;;;;;;;5087940;28;20067;-65
2021/11/24 13:35:33;;;;;;;;;;;;;;;;;;5085616;28;20051;-65
2021/11/24 13:37:59;;;;;;;5.90;3.80;;;;;;;;;;5086421;28;19911;-65
2021/11/24 13:40:50;;;;;;;4.25;2.55;;;;;;;;;;5088518;28;20060;-65
2021/11/24 13:43:34;;;;;;;4.40;1.77;;;;;;;;;;5083187;28;20028;-64
2021/11/24 13:46:09;;;;;;;5.20;2.08;;;;;;;;;;5086668;28;20070;-59
2021/11/24 13:48:35;;;;;;;5.35;3.03;;;;;;;;;;5086017;28;20409;-60
2021/11/24 13:51:01;;;;;;;3.05;1.70;;;;;;;;;;5085961;28;20554;-59
2021/11/24 13:53:28;;;;;;;3.55;1.73;;;;;;;;;;5086294;28;20093;-59
2021/11/24 13:56:12;;;;;;;4.22;0.90;;;;;;;;;;5085620;28;20044;-59
2021/11/24 13:58:39;;;;;;;5.32;3.08;;;;;;;;;;5085733;28;20631;-60
2021/11/24 14:01:12;;;;;;;2.03;1.17;;;;;;;;;;5085586;28;20109;-60
2021/11/24 14:03:37;;;;;;;3.20;2.33;;;;;;;;;;5085681;28;20052;-61
2021/11/24 14:06:03;;;;;;;2.05;1.58;;;;;;;;;;5085678;28;20055;-59
2021/11/24 14:08:36;;;;;;;2.70;2.50;;;;;;;;;;5081112;28;20491;-60
2021/11/24 14:11:01;;;;;;;7.80;1.75;;;;;;;;;;5082786;28;20056;-60
2021/11/24 14:13:31;;;;;;;2.55;1.55;;;;;;;;;;5077932;28;20048;-69
2021/11/24 14:16:06;;;;;;;3.78;1.92;;;;;;;;;;5085362;28;20051;-66
2021/11/24 14:18:31;;;;;;;2.67;1.13;;;;;;;;;;5084132;28;20036;-61
2021/11/24 14:20:57;;;;;;;9.52;1.67;;;;;;;;;;5084392;28;20059;-56
2021/11/24 14:23:26;;;;;;;11.43;7.55;;;;;;;;;;5085822;28;20567;-57
2021/11/24 14:25:53;;;;;;;15.70;14.02;;;;;;;;;;5083197;28;20074;-62
2021/11/24 14:28:20;;;;;;;6.18;4.68;;;;;;;;;;5088193;28;20045;-62
2021/11/24 14:30:46;;;;;;;5.78;3.92;;;;;;;;;;5088588;28;20127;-62
2021/11/24 14:33:12;;;;;;;2.35;1.35;;;;;;;;;;5086969;28;20051;-41
2021/11/24 14:35:38;;;;;;;11.20;5.00;;;;;;;;;;5085970;28;20064;-57
2021/11/24 14:38:04;;;;;;;5.15;3.30;;;;;;;;;;5087592;28;20046;-44
2021/11/24 14:40:31;;;;;;;2.20;1.42;;;;;;;;;;5086444;28;20766;-45
2021/11/24 14:42:57;;;;;;;9.50;7.15;;;;;;;;;;5087486;28;20051;-48
2021/11/24 14:45:23;;;;;;;7.30;3.97;;;;;;;;;;5086875;28;20059;-45